Time;durP1;ratioP1;P1;durP2;ratioP2;P2;SDS_P1;SDS_P2;PMS_P1;PMS_P2;Temp;Humidity;BMP_temperature;BMP_pressure;BME280_temperature;BME280_humidity;BME280_pressure;Samples;Min_cycle;Max_cycle;Signal;HPM_P1;HPM_P2
2023/12/22 00:01:09;;;;;;;7.37;2.33;;;;;4.70;92806.00;;;;7401575;19;20153;-80
2023/12/22 00:03:37;;;;;;;8.27;2.30;;;;;4.60;92802.00;;;;7400235;19;20620;-82
2023/12/22 00:06:12;;;;;;;10.97;2.40;;;;;4.60;92799.00;;;;7401366;19;20468;-83
2023/12/22 00:08:40;;;;;;;5.97;2.33;;;;;4.70;92797.00;;;;7401993;19;20141;-83
2023/12/22 00:11:17;;;;;;;9.07;2.53;;;;;4.60;92763.00;;;;7402471;19;20133;-83
2023/12/22 00:13:51;;;;;;;7.83;2.57;;;;;4.70;92793.00;;;;7401785;19;20592;-82
2023/12/22 00:16:31;;;;;;;6.63;2.37;;;;;4.60;92792.00;;;;7401598;19;20216;-82
2023/12/22 00:19:05;;;;;;;7.57;3.10;;;;;4.60;92803.00;;;;7399897;19;20148;-82
2023/12/22 00:21:32;;;;;;;8.40;2.37;;;;;4.60;92781.00;;;;7403093;19;20585;-82
2023/12/22 00:24:07;;;;;;;7.57;2.53;;;;;4.50;92801.00;;;;7400467;19;20205;-80
2023/12/22 00:26:41;;;;;;;5.40;2.20;;;;;4.50;92813.00;;;;7402012;19;20466;-79
2023/12/22 00:29:15;;;;;;;7.70;2.53;;;;;4.60;92819.00;;;;7402659;19;20140;-79
2023/12/22 00:31:45;;;;;;;9.57;2.63;;;;;4.60;92815.00;;;;7401026;19;20637;-79
2023/12/22 00:34:19;;;;;;;6.23;2.30;;;;;4.60;92829.00;;;;7398030;19;20167;-80
2023/12/22 00:36:47;;;;;;;11.83;2.30;;;;;4.50;92828.00;;;;7401754;19;20141;-79
2023/12/22 00:39:22;;;;;;;4.47;2.50;;;;;4.50;92841.00;;;;7401790;19;20492;-79
2023/12/22 00:41:58;;;;;;;5.00;2.40;;;;;4.40;92819.00;;;;7399484;19;20549;-80
2023/12/22 00:44:40;;;;;;;9.53;2.47;;;;;4.50;92847.00;;;;7400943;19;20120;-81
2023/12/22 00:47:08;;;;;;;12.77;3.00;;;;;4.50;92819.00;;;;7401657;19;20129;-80
2023/12/22 00:49:43;;;;;;;9.53;2.70;;;;;4.50;92833.00;;;;7400356;19;20611;-80
2023/12/22 00:52:12;;;;;;;6.53;2.43;;;;;4.60;92843.00;;;;7399968;19;20147;-80
2023/12/22 00:54:46;;;;;;;10.03;2.83;;;;;4.70;92821.00;;;;7400408;19;20488;-81
2023/12/22 00:57:21;;;;;;;7.73;2.40;;;;;4.60;92831.00;;;;7401789;19;20130;-82
2023/12/22 01:00:04;;;;;;;7.50;2.87;;;;;4.60;92820.00;;;;7400604;19;20136;-81
2023/12/22 01:02:38;;;;;;;7.33;2.50;;;;;4.50;92810.00;;;;7399734;19;20152;-83
2023/12/22 01:05:06;;;;;;;9.37;2.30;;;;;4.30;92794.00;;;;7401788;19;20426;-82
2023/12/22 01:07:42;;;;;;;5.30;2.03;;;;;4.40;92808.00;;;;7402526;19;20583;-80
2023/12/22 01:10:16;;;;;;;5.20;1.90;;;;;4.40;92789.00;;;;7401418;19;20196;-80
2023/12/22 01:12:44;;;;;;;4.67;1.30;;;;;4.20;92818.00;;;;7400614;19;20129;-80
2023/12/22 01:15:12;;;;;;;6.47;1.60;;;;;4.20;92808.00;;;;7399873;19;20144;-80
2023/12/22 01:17:46;;;;;;;3.33;1.10;;;;;4.20;92833.00;;;;7400792;19;20140;-80
2023/12/22 01:20:16;;;;;;;5.87;1.20;;;;;4.10;92800.00;;;;7401074;19;20167;-81
2023/12/22 01:22:50;;;;;;;4.27;1.33;;;;;4.10;92818.00;;;;7402235;19;20580;-81
2023/12/22 01:25:18;;;;;;;2.80;1.17;;;;;4.10;92806.00;;;;7399585;19;20588;-82
2023/12/22 01:27:54;;;;;;;1.77;0.90;;;;;4.00;92824.00;;;;7401551;19;20181;-81
2023/12/22 01:30:22;;;;;;;3.17;1.10;;;;;3.90;92831.00;;;;7399597;19;20156;-81
2023/12/22 01:32:56;;;;;;;3.23;0.90;;;;;4.00;92822.00;;;;7399362;19;20541;-81
2023/12/22 01:35:23;;;;;;;3.33;1.00;;;;;4.00;92827.00;;;;7398218;19;20158;-79
2023/12/22 01:37:58;;;;;;;3.50;1.10;;;;;4.00;92818.00;;;;7400114;19;20138;-80
2023/12/22 01:40:26;;;;;;;2.40;0.77;;;;;4.00;92820.00;;;;7400960;19;20216;-80
2023/12/22 01:43:01;;;;;;;3.63;1.30;;;;;4.00;92838.00;;;;7397331;19;20510;-81
2023/12/22 01:45:37;;;;;;;1.87;0.90;;;;;4.00;92850.00;;;;7399958;19;20169;-81
2023/12/22 01:48:12;;;;;;;1.93;0.93;;;;;3.90;92872.00;;;;7400518;19;20628;-81
2023/12/22 01:50:48;;;;;;;4.43;1.00;;;;;4.00;92875.00;;;;7401451;19;20157;-80
2023/12/22 01:53:26;;;;;;;4.50;1.20;;;;;4.00;92882.00;;;;7399826;19;20212;-80
2023/12/22 01:56:07;;;;;;;3.93;1.37;;;;;4.00;92888.00;;;;7399086;19;20636;-82
2023/12/22 01:58:41;;;;;;;5.47;1.30;;;;;4.00;92885.00;;;;7400595;19;20608;-81
2023/12/22 02:01:09;;;;;;;5.03;1.40;;;;;4.20;92879.00;;;;7399136;19;20163;-80
2023/12/22 02:03:43;;;;;;;2.83;1.40;;;;;4.00;92878.00;;;;7398498;19;20188;-79
2023/12/22 02:06:17;;;;;;;8.90;1.90;;;;;4.10;92864.00;;;;7399002;19;20612;-81
2023/12/22 02:08:51;;;;;;;5.80;2.50;;;;;4.10;92884.00;;;;7399039;19;20174;-80
2023/12/22 02:11:19;;;;;;;4.60;2.10;;;;;4.00;92861.00;;;;7399010;19;20616;-82
2023/12/22 02:13:53;;;;;;;12.13;2.10;;;;;4.00;92872.00;;;;7400070;19;20592;-79
2023/12/22 02:16:45;;;;;;;5.17;1.87;;;;;4.10;92854.00;;;;7399284;19;20205;-79
2023/12/22 02:19:42;;;;;;;6.17;2.03;;;;;4.10;92834.00;;;;7399485;19;20148;-82
2023/12/22 02:22:11;;;;;;;5.57;1.80;;;;;4.20;92848.00;;;;7398860;19;20177;-83
2023/12/22 02:24:46;;;;;;;6.80;2.00;;;;;4.20;92847.00;;;;7397383;19;20140;-82
2023/12/22 02:27:43;;;;;;;9.13;2.37;;;;;4.40;92874.00;;;;7398569;19;20140;-82
2023/12/22 02:30:32;;;;;;;7.77;1.70;;;;;4.40;92849.00;;;;7398999;19;20133;-81
2023/12/22 02:33:14;;;;;;;5.30;1.60;;;;;4.20;92856.00;;;;7399106;19;20473;-80
2023/12/22 02:35:57;;;;;;;9.53;2.57;;;;;4.10;92836.00;;;;7397895;19;20592;-79
2023/12/22 02:38:33;;;;;;;7.10;1.73;;;;;4.30;92859.00;;;;7398627;19;20212;-79
2023/12/22 02:41:08;;;;;;;6.83;1.67;;;;;4.20;92871.00;;;;7399335;19;20161;-82
2023/12/22 02:43:43;;;;;;;5.77;1.70;;;;;4.20;92839.00;;;;7397064;19;20496;-80
2023/12/22 02:46:20;;;;;;;9.20;2.17;;;;;4.30;92863.00;;;;7398034;19;20157;-79
2023/12/22 02:48:47;;;;;;;5.10;1.77;;;;;4.20;92869.00;;;;7398655;19;20157;-81
2023/12/22 02:51:15;;;;;;;7.20;1.50;;;;;4.20;92863.00;;;;7398140;19;20600;-80
2023/12/22 02:53:49;;;;;;;5.33;1.30;;;;;4.20;92851.00;;;;7399667;19;20485;-80
2023/12/22 02:56:25;;;;;;;3.10;1.40;;;;;4.30;92881.00;;;;7397807;19;20133;-79
2023/12/22 02:58:55;;;;;;;7.57;2.30;;;;;4.30;92862.00;;;;7402466;19;20151;-80
2023/12/22 03:01:30;;;;;;;5.60;1.63;;;;;4.20;92878.00;;;;7405221;19;20157;-80
2023/12/22 03:03:58;;;;;;;4.83;1.37;;;;;4.20;92881.00;;;;7404680;19;20461;-79
2023/12/22 03:06:36;;;;;;;3.53;1.60;;;;;4.20;92890.00;;;;7406259;19;20160;-79
2023/12/22 03:09:10;;;;;;;4.17;1.30;;;;;4.20;92881.00;;;;7405162;19;20140;-81
2023/12/22 03:11:38;;;;;;;5.00;1.60;;;;;4.30;92879.00;;;;7403012;19;20117;-80
2023/12/22 03:14:12;;;;;;;5.40;1.67;;;;;4.20;92874.00;;;;7403491;19;20137;-80
2023/12/22 03:16:40;;;;;;;5.67;1.50;;;;;4.20;92901.00;;;;7403943;19;20144;-78
2023/12/22 03:19:16;;;;;;;7.00;1.50;;;;;4.20;92885.00;;;;7401845;19;20168;-79
2023/12/22 03:21:50;;;;;;;9.77;1.63;;;;;4.20;92873.00;;;;7404925;19;20208;-81
2023/12/22 03:24:28;;;;;;;6.20;1.37;;;;;4.20;92854.00;;;;7402212;19;20289;-80
2023/12/22 03:26:59;;;;;;;4.97;1.67;;;;;4.20;92842.00;;;;7403292;19;20169;-80
2023/12/22 03:29:32;;;;;;;4.10;1.70;;;;;4.20;92858.00;;;;7404471;19;20148;-80
2023/12/22 03:32:08;;;;;;;8.00;2.20;;;;;4.20;92864.00;;;;7404027;19;20592;-81
2023/12/22 03:34:39;;;;;;;8.37;2.17;;;;;4.30;92864.00;;;;7404047;19;20165;-82
2023/12/22 03:37:12;;;;;;;8.83;1.90;;;;;4.20;92854.00;;;;7404629;19;20125;-81
2023/12/22 03:39:40;;;;;;;7.03;2.07;;;;;4.30;92832.00;;;;7405085;19;20593;-80
2023/12/22 03:42:29;;;;;;;3.83;1.87;;;;;4.50;92821.00;;;;7402569;19;20128;-80
2023/12/22 03:45:06;;;;;;;7.50;1.40;;;;;4.40;92830.00;;;;7403081;19;20137;-84
2023/12/22 03:47:40;;;;;;;8.30;2.00;;;;;4.30;92874.00;;;;7405484;19;20635;-84
2023/12/22 03:50:08;;;;;;;12.10;2.27;;;;;4.50;92885.00;;;;7404372;19;20585;-81
2023/12/22 03:52:43;;;;;;;7.17;1.40;;;;;4.30;92871.00;;;;7406334;19;20615;-83
2023/12/22 03:55:21;;;;;;;8.03;1.70;;;;;4.40;92857.00;;;;7403908;19;20616;-83
2023/12/22 03:57:55;;;;;;;9.23;2.07;;;;;4.50;92856.00;;;;7405437;19;20165;-82
2023/12/22 04:00:22;;;;;;;10.07;2.20;;;;;4.40;92873.00;;;;7400889;19;20230;-83
2023/12/22 04:02:55;;;;;;;8.40;2.00;;;;;4.40;92862.00;;;;7401477;19;20600;-80
2023/12/22 04:05:32;;;;;;;8.90;1.87;;;;;4.50;92832.00;;;;7391675;19;20132;-83
2023/12/22 04:08:06;;;;;;;7.00;1.93;;;;;4.40;92854.00;;;;7404680;19;20620;-83
2023/12/22 04:10:40;;;;;;;9.43;1.90;;;;;4.40;92879.00;;;;7402469;19;20608;-85
2023/12/22 04:13:18;;;;;;;12.33;2.30;;;;;4.10;92873.00;;;;7402842;19;20144;-82
2023/12/22 04:15:53;;;;;;;14.17;2.80;;;;;4.00;92902.00;;;;7403725;19;20219;-83
2023/12/22 04:18:21;;;;;;;9.83;2.40;;;;;3.80;92905.00;;;;7400495;19;20141;-83
2023/12/22 04:20:55;;;;;;;4.77;1.50;;;;;3.80;92885.00;;;;7401622;19;20612;-81
2023/12/22 04:23:29;;;;;;;5.03;1.40;;;;;3.70;92864.00;;;;7402234;19;20157;-82
2023/12/22 04:26:02;;;;;;;5.53;2.37;;;;;3.60;92899.00;;;;7399194;19;20133;-83
2023/12/22 04:28:30;;;;;;;6.07;1.77;;;;;3.60;92904.00;;;;7403563;19;20139;-81
2023/12/22 04:31:06;;;;;;;8.20;1.83;;;;;3.70;92897.00;;;;7401437;19;20132;-82
2023/12/22 04:33:34;;;;;;;4.93;1.53;;;;;3.60;92896.00;;;;7401778;19;20133;-80
2023/12/22 04:36:08;;;;;;;10.73;2.50;;;;;3.80;92883.00;;;;7401570;19;20141;-79
2023/12/22 04:38:41;;;;;;;10.40;2.30;;;;;3.80;92889.00;;;;7402926;19;20142;-79
2023/12/22 04:41:15;;;;;;;11.10;2.40;;;;;3.80;92885.00;;;;7402966;19;20137;-81
2023/12/22 04:43:43;;;;;;;11.40;3.00;;;;;3.70;92903.00;;;;7399942;19;20181;-80
2023/12/22 04:46:18;;;;;;;9.53;2.27;;;;;3.80;92888.00;;;;7398569;19;20132;-79
2023/12/22 04:48:46;;;;;;;9.63;2.77;;;;;3.80;92901.00;;;;7402917;19;20595;-82
2023/12/22 04:51:21;;;;;;;8.30;2.20;;;;;3.70;92901.00;;;;7400564;19;20137;-83
2023/12/22 04:53:48;;;;;;;9.77;2.70;;;;;3.70;92915.00;;;;7401450;19;20132;-78
2023/12/22 04:56:23;;;;;;;12.63;2.90;;;;;3.70;92895.00;;;;7401786;19;20210;-79
2023/12/22 04:58:57;;;;;;;8.77;2.40;;;;;3.80;92890.00;;;;7400619;19;20140;-80
2023/12/22 05:01:34;;;;;;;8.07;2.43;;;;;3.70;92910.00;;;;7400447;19;20141;-81
2023/12/22 05:04:09;;;;;;;21.03;3.53;;;;;3.80;92922.00;;;;7400172;19;20148;-79
2023/12/22 05:06:38;;;;;;;13.30;3.27;;;;;3.70;92929.00;;;;7400109;19;20145;-78
2023/12/22 05:09:13;;;;;;;14.80;3.53;;;;;3.90;92906.00;;;;7401347;19;20135;-81
2023/12/22 05:11:40;;;;;;;14.13;3.43;;;;;3.80;92904.00;;;;7401140;19;20136;-81
2023/12/22 05:14:15;;;;;;;12.10;3.27;;;;;3.90;92888.00;;;;7400110;19;20144;-78
2023/12/22 05:16:50;;;;;;;16.67;3.43;;;;;3.90;92903.00;;;;7399120;19;20184;-79
2023/12/22 05:19:25;;;;;;;9.33;2.87;;;;;3.80;92894.00;;;;7399173;19;20619;-80
2023/12/22 05:21:59;;;;;;;14.20;3.23;;;;;3.90;92924.00;;;;7398357;19;20160;-81
2023/12/22 05:24:34;;;;;;;12.37;3.30;;;;;4.00;92906.00;;;;7398800;19;20132;-81
2023/12/22 05:27:01;;;;;;;13.50;2.67;;;;;3.90;92907.00;;;;7400011;19;20137;-80
2023/12/22 05:29:36;;;;;;;15.53;2.83;;;;;3.80;92921.00;;;;7398116;19;20592;-80
2023/12/22 05:32:04;;;;;;;11.80;2.93;;;;;3.90;92916.00;;;;7398421;19;20139;-80
2023/12/22 05:34:38;;;;;;;11.70;2.87;;;;;3.90;92902.00;;;;7400423;19;20136;-79
2023/12/22 05:37:09;;;;;;;13.90;3.03;;;;;3.90;92921.00;;;;7396971;19;20149;-81
2023/12/22 05:39:43;;;;;;;12.97;2.83;;;;;4.00;92929.00;;;;7398130;19;20141;-76
2023/12/22 05:42:32;;;;;;;12.43;3.23;;;;;4.00;92960.00;;;;7399614;19;20560;-80
2023/12/22 05:45:07;;;;;;;14.47;3.40;;;;;4.00;92931.00;;;;7397330;19;20622;-79
2023/12/22 05:47:42;;;;;;;14.57;3.10;;;;;3.90;92941.00;;;;7398366;19;20453;-79
2023/12/22 05:50:10;;;;;;;13.23;3.00;;;;;3.90;92938.00;;;;7399367;19;20129;-80
2023/12/22 05:52:38;;;;;;;8.33;2.93;;;;;3.80;92983.00;;;;7395946;19;20141;-81
2023/12/22 05:55:13;;;;;;;13.00;3.80;;;;;4.00;92967.00;;;;7399378;19;20628;-82
2023/12/22 05:57:46;;;;;;;12.70;3.43;;;;;3.90;92977.00;;;;7400883;19;20599;-81
2023/12/22 06:00:21;;;;;;;11.10;3.13;;;;;3.90;92971.00;;;;7398245;19;20161;-80
2023/12/22 06:02:57;;;;;;;13.83;3.60;;;;;4.00;92952.00;;;;7398171;19;20144;-80
2023/12/22 06:05:25;;;;;;;16.47;3.23;;;;;3.90;92965.00;;;;7399309;19;20146;-80
2023/12/22 06:07:59;;;;;;;10.33;2.60;;;;;3.80;92966.00;;;;7399020;19;20151;-79
2023/12/22 06:10:33;;;;;;;8.60;2.50;;;;;3.70;92970.00;;;;7398043;19;20620;-80
2023/12/22 06:13:07;;;;;;;10.23;3.67;;;;;3.80;92971.00;;;;7398549;19;20152;-79
2023/12/22 06:15:34;;;;;;;11.97;2.97;;;;;3.90;92978.00;;;;7398451;19;20141;-78
2023/12/22 06:18:08;;;;;;;14.07;3.23;;;;;3.90;92969.00;;;;7398072;19;20152;-80
2023/12/22 06:20:43;;;;;;;15.30;2.83;;;;;3.90;92943.00;;;;7396702;19;20151;-81
2023/12/22 06:23:16;;;;;;;9.17;2.80;;;;;3.80;92983.00;;;;7399412;19;20137;-81
2023/12/22 06:25:50;;;;;;;20.40;2.77;;;;;3.90;92962.00;;;;7391657;19;20149;-80
2023/12/22 06:28:18;;;;;;;12.53;2.27;;;;;3.90;92967.00;;;;7388928;19;20157;-78
2023/12/22 06:30:54;;;;;;;8.97;2.20;;;;;3.60;92951.00;;;;7389395;19;20140;-81
2023/12/22 06:33:28;;;;;;;13.37;2.77;;;;;3.70;92966.00;;;;7396539;19;20620;-82
2023/12/22 06:36:03;;;;;;;10.40;2.60;;;;;3.50;92975.00;;;;7397929;19;20605;-80
2023/12/22 06:38:31;;;;;;;15.30;2.60;;;;;3.50;92986.00;;;;7397451;19;20493;-80
2023/12/22 06:40:59;;;;;;;18.13;3.63;;;;;3.60;93002.00;;;;7399502;19;20132;-82
2023/12/22 06:43:40;;;;;;;11.50;2.77;;;;;3.70;92962.00;;;;7395807;19;20183;-77
2023/12/22 06:46:22;;;;;;;13.97;3.20;;;;;3.70;92967.00;;;;7397646;19;20128;-77
2023/12/22 06:48:50;;;;;;;14.60;3.07;;;;;3.60;92985.00;;;;7395748;19;20140;-82
2023/12/22 06:51:27;;;;;;;10.03;2.50;;;;;3.70;92971.00;;;;7395947;19;20481;-76
2023/12/22 06:54:04;;;;;;;13.47;2.70;;;;;3.60;92969.00;;;;7397804;19;20125;-81
2023/12/22 06:56:33;;;;;;;18.67;3.93;;;;;3.60;92980.00;;;;7399571;19;20129;-81
2023/12/22 06:59:11;;;;;;;8.27;2.50;;;;;3.60;92982.00;;;;7401840;19;20195;-81
2023/12/22 07:01:42;;;;;;;11.70;2.47;;;;;3.60;92998.00;;;;7395593;19;20515;-79
2023/12/22 07:05:07;;;;;;;13.80;3.00;;;;;3.50;92996.00;;;;7399223;19;20145;-80
2023/12/22 07:07:41;;;;;;;12.33;2.80;;;;;3.60;92957.00;;;;7403164;19;20189;-79
2023/12/22 07:10:16;;;;;;;11.00;2.83;;;;;3.60;92984.00;;;;7406736;19;20156;-81
2023/12/22 07:12:45;;;;;;;12.93;2.83;;;;;3.60;92993.00;;;;7402339;19;20492;-80
2023/12/22 07:15:20;;;;;;;13.77;3.00;;;;;3.70;92996.00;;;;7408544;19;20149;-81
2023/12/22 07:17:55;;;;;;;14.10;3.10;;;;;3.60;92992.00;;;;7408396;19;20180;-83
2023/12/22 07:20:30;;;;;;;11.77;2.80;;;;;3.80;92993.00;;;;7420937;19;20715;-84
2023/12/22 07:22:58;;;;;;;15.10;2.80;;;;;3.70;92998.00;;;;7420491;19;20177;-81
2023/12/22 07:25:36;;;;;;;9.47;2.20;;;;;3.70;92999.00;;;;7413569;19;20147;-84
2023/12/22 07:28:05;;;;;;;10.40;2.27;;;;;3.80;92997.00;;;;7399607;19;20694;-81
2023/12/22 07:30:39;;;;;;;8.37;2.63;;;;;3.70;92996.00;;;;7399441;19;20156;-84
2023/12/22 07:33:13;;;;;;;8.00;2.00;;;;;3.60;92983.00;;;;7402099;19;20611;-82
2023/12/22 07:35:47;;;;;;;8.77;2.53;;;;;3.60;93006.00;;;;7400980;19;20503;-84
2023/12/22 07:38:22;;;;;;;14.23;3.07;;;;;3.60;92999.00;;;;7404516;19;20128;-83
2023/12/22 07:40:56;;;;;;;10.07;2.47;;;;;3.80;93004.00;;;;7414073;19;20462;-83
2023/12/22 07:43:36;;;;;;;17.03;3.57;;;;;3.70;92999.00;;;;7418475;19;20176;-82
2023/12/22 07:46:21;;;;;;;15.33;3.23;;;;;3.90;93007.00;;;;7419369;19;20140;-83
2023/12/22 07:48:56;;;;;;;15.80;3.23;;;;;3.90;92976.00;;;;7420996;19;20153;-84
2023/12/22 07:51:31;;;;;;;20.10;3.67;;;;;3.90;93003.00;;;;7412498;19;20168;-81
2023/12/22 07:54:00;;;;;;;17.27;3.73;;;;;3.90;93004.00;;;;7418999;19;20153;-82
2023/12/22 07:56:35;;;;;;;15.33;3.60;;;;;3.90;93018.00;;;;7424727;19;20982;-85
2023/12/22 07:59:03;;;;;;;14.80;3.20;;;;;4.00;93009.00;;;;7419118;19;20148;-81
2023/12/22 08:01:56;;;;;;;14.03;3.20;;;;;4.10;93016.00;;;;7420480;19;20149;-81
2023/12/22 08:04:31;;;;;;;15.70;3.03;;;;;4.00;93043.00;;;;7419830;19;20135;-82
2023/12/22 08:07:00;;;;;;;15.03;3.93;;;;;4.00;93037.00;;;;7417164;19;20181;-80
2023/12/22 08:09:34;;;;;;;23.00;4.00;;;;;4.00;93037.00;;;;7420366;19;20156;-83
2023/12/22 08:12:01;;;;;;;20.23;4.43;;;;;4.00;93054.00;;;;7416806;19;20173;-83
2023/12/22 08:14:36;;;;;;;17.63;3.30;;;;;4.00;93044.00;;;;7411590;19;20136;-80
2023/12/22 08:17:10;;;;;;;17.63;3.20;;;;;3.90;93054.00;;;;7413879;19;21548;-88
2023/12/22 08:19:50;;;;;;;14.07;2.90;;;;;3.90;93074.00;;;;7419377;19;20149;-83
2023/12/22 08:22:37;;;;;;;14.90;3.40;;;;;4.10;93066.00;;;;7420453;19;20985;-83
2023/12/22 08:25:14;;;;;;;16.60;2.97;;;;;4.20;93056.00;;;;7417472;19;20128;-83
2023/12/22 08:27:42;;;;;;;15.20;2.97;;;;;4.10;93086.00;;;;7416629;19;20165;-85
2023/12/22 08:30:16;;;;;;;9.93;2.67;;;;;4.00;93040.00;;;;7416364;19;20136;-84
2023/12/22 08:32:51;;;;;;;14.60;2.83;;;;;4.00;93102.00;;;;7423470;19;20128;-84
2023/12/22 08:35:27;;;;;;;14.17;2.80;;;;;3.90;93062.00;;;;7422285;19;20170;-85
2023/12/22 08:37:58;;;;;;;14.27;3.07;;;;;3.90;93084.00;;;;7415936;19;20133;-85
2023/12/22 08:40:35;;;;;;;15.17;3.40;;;;;4.10;93080.00;;;;7419426;19;20177;-83
2023/12/22 08:43:16;;;;;;;15.73;3.33;;;;;4.10;93058.00;;;;7418638;19;20180;-83
2023/12/22 08:45:57;;;;;;;14.13;3.10;;;;;4.10;93097.00;;;;7415718;19;20144;-82
2023/12/22 08:48:38;;;;;;;17.20;4.07;;;;;4.00;93083.00;;;;7418829;19;20148;-84
2023/12/22 08:51:13;;;;;;;22.13;3.87;;;;;4.10;93077.00;;;;7419777;19;20141;-83
2023/12/22 08:53:47;;;;;;;18.43;3.60;;;;;4.10;93080.00;;;;7419875;19;20479;-83
2023/12/22 08:56:24;;;;;;;19.23;3.40;;;;;4.00;93066.00;;;;7417529;19;20153;-84
2023/12/22 08:58:59;;;;;;;14.53;3.93;;;;;4.20;93061.00;;;;7418491;19;20129;-82
2023/12/22 09:01:34;;;;;;;17.07;3.80;;;;;4.00;93044.00;;;;7413805;19;20145;-82
2023/12/22 09:04:13;;;;;;;17.13;3.43;;;;;4.20;93084.00;;;;7416305;19;20149;-83
2023/12/22 09:06:48;;;;;;;23.57;4.00;;;;;4.20;93078.00;;;;7417906;19;20136;-81
2023/12/22 09:09:24;;;;;;;23.37;3.77;;;;;4.20;93051.00;;;;7418743;19;20128;-84
2023/12/22 09:11:58;;;;;;;23.80;3.77;;;;;4.30;93064.00;;;;7410859;19;20630;-83
2023/12/22 09:14:27;;;;;;;15.03;3.57;;;;;4.30;93090.00;;;;7420817;19;20580;-83
2023/12/22 09:17:01;;;;;;;15.20;3.60;;;;;4.10;93033.00;;;;7413350;19;20129;-85
2023/12/22 09:19:38;;;;;;;19.07;3.97;;;;;4.30;93098.00;;;;7423490;19;20125;-86
2023/12/22 09:22:36;;;;;;;21.03;3.57;;;;;4.10;93094.00;;;;7383149;19;20190;-85
2023/12/22 09:25:11;;;;;;;15.63;3.47;;;;;4.00;93057.00;;;;7387585;19;20481;-82
2023/12/22 09:27:46;;;;;;;27.93;3.80;;;;;4.30;93088.00;;;;7387516;19;20136;-77
2023/12/22 09:30:21;;;;;;;11.40;3.73;;;;;4.10;93095.00;;;;7388921;19;20144;-77
2023/12/22 09:32:52;;;;;;;18.93;3.90;;;;;4.20;93079.00;;;;7386528;19;21537;-76
2023/12/22 09:35:27;;;;;;;17.33;3.80;;;;;4.30;93084.00;;;;7386863;19;20124;-76
2023/12/22 09:38:03;;;;;;;23.00;5.93;;;;;4.30;93089.00;;;;7386482;19;20496;-76
2023/12/22 09:40:39;;;;;;;21.53;4.13;;;;;4.40;93101.00;;;;7386872;19;20148;-79
2023/12/22 09:43:08;;;;;;;20.17;3.60;;;;;4.30;93071.00;;;;7385910;19;20188;-78
2023/12/22 09:45:45;;;;;;;17.17;3.90;;;;;4.20;93074.00;;;;7386740;19;20152;-77
2023/12/22 09:48:17;;;;;;;29.10;4.87;;;;;4.30;93088.00;;;;7388595;19;20132;-77
2023/12/22 09:50:53;;;;;;;21.77;4.93;;;;;4.30;93098.00;;;;7386588;19;21172;-76
2023/12/22 09:53:31;;;;;;;18.50;3.77;;;;;4.40;93086.00;;;;7386810;19;20141;-77
2023/12/22 09:56:08;;;;;;;19.50;3.53;;;;;4.30;93100.00;;;;7387401;19;20145;-76
2023/12/22 09:58:47;;;;;;;20.63;4.40;;;;;4.40;93087.00;;;;7388128;19;20163;-77
2023/12/22 10:01:23;;;;;;;27.07;4.03;;;;;4.50;93088.00;;;;7386027;19;20199;-77
2023/12/22 10:03:51;;;;;;;21.90;4.33;;;;;4.30;93079.00;;;;7387179;19;20493;-77
2023/12/22 10:06:20;;;;;;;18.70;4.03;;;;;4.30;93085.00;;;;7388810;19;20133;-77
2023/12/22 10:08:54;;;;;;;18.57;4.60;;;;;4.40;93088.00;;;;7387036;19;20169;-77
2023/12/22 10:11:23;;;;;;;18.30;3.60;;;;;4.50;93084.00;;;;7386440;19;20217;-76
2023/12/22 10:14:00;;;;;;;20.13;4.03;;;;;4.40;93092.00;;;;7388139;19;20527;-78
2023/12/22 10:16:28;;;;;;;16.83;3.43;;;;;4.30;93096.00;;;;7386171;19;20140;-76
2023/12/22 10:19:04;;;;;;;10.37;2.97;;;;;4.20;93082.00;;;;7387772;19;20147;-76
2023/12/22 10:21:38;;;;;;;17.13;3.47;;;;;4.10;93083.00;;;;7386360;19;20204;-77
2023/12/22 10:24:53;;;;;;;16.83;3.20;;;;;4.20;93090.00;;;;7387160;19;20145;-76
2023/12/22 10:27:23;;;;;;;13.57;3.30;;;;;4.40;93086.00;;;;7385295;19;20145;-76
2023/12/22 10:29:58;;;;;;;16.33;3.20;;;;;4.30;93071.00;;;;7387638;19;20590;-76
2023/12/22 10:32:26;;;;;;;14.60;2.90;;;;;4.20;93103.00;;;;7384947;19;20144;-76
2023/12/22 10:35:01;;;;;;;11.27;3.10;;;;;4.20;93069.00;;;;7386852;19;20521;-77
2023/12/22 10:37:29;;;;;;;13.60;2.60;;;;;4.30;93082.00;;;;7387255;19;20148;-74
2023/12/22 10:40:07;;;;;;;9.27;2.13;;;;;4.40;93084.00;;;;7385429;19;20132;-77
2023/12/22 10:42:36;;;;;;;8.07;2.57;;;;;4.50;93069.00;;;;7386539;19;20176;-77
2023/12/22 10:45:13;;;;;;;10.57;2.37;;;;;4.50;93071.00;;;;7385645;19;20538;-79
2023/12/22 10:47:43;;;;;;;10.80;2.40;;;;;4.40;93076.00;;;;7385354;19;20148;-77
2023/12/22 10:50:20;;;;;;;9.90;2.53;;;;;4.50;93070.00;;;;7387102;19;20188;-77
2023/12/22 10:52:50;;;;;;;9.73;2.20;;;;;4.50;93062.00;;;;7385741;19;20204;-76
2023/12/22 10:55:27;;;;;;;8.83;2.67;;;;;4.40;93066.00;;;;7386717;19;20203;-75
2023/12/22 10:57:56;;;;;;;9.10;2.77;;;;;4.50;93052.00;;;;7384191;19;20151;-76
2023/12/22 11:00:24;;;;;;;8.37;2.27;;;;;4.50;93062.00;;;;7383025;19;20157;-75
2023/12/22 11:03:06;;;;;;;6.53;1.90;;;;;4.50;93071.00;;;;7385592;19;20128;-81
2023/12/22 11:05:45;;;;;;;6.97;2.27;;;;;4.50;93055.00;;;;7384303;19;20136;-75
2023/12/22 11:08:21;;;;;;;10.57;2.77;;;;;4.50;93050.00;;;;7383686;19;20144;-78
2023/12/22 11:10:58;;;;;;;7.33;2.30;;;;;4.60;93041.00;;;;7384444;19;20152;-86
2023/12/22 11:13:36;;;;;;;7.37;1.60;;;;;4.50;93049.00;;;;7383101;19;20169;-77
2023/12/22 11:16:14;;;;;;;6.20;1.63;;;;;4.50;93053.00;;;;7382945;19;20151;-76
2023/12/22 11:18:49;;;;;;;7.93;1.70;;;;;4.50;93042.00;;;;7388352;19;20129;-77
2023/12/22 11:21:31;;;;;;;5.40;1.87;;;;;4.50;93038.00;;;;7390189;19;20176;-84
2023/12/22 11:24:07;;;;;;;8.03;1.67;;;;;4.60;93045.00;;;;7391390;19;20648;-76
2023/12/22 11:26:36;;;;;;;7.90;1.83;;;;;4.60;93030.00;;;;7390355;19;20743;-76
2023/12/22 11:29:12;;;;;;;6.67;1.57;;;;;4.50;93023.00;;;;7391577;19;20173;-77
2023/12/22 11:31:50;;;;;;;7.93;1.53;;;;;4.40;93031.00;;;;7391630;19;20176;-81
2023/12/22 11:34:28;;;;;;;1.57;1.03;;;;;4.20;93020.00;;;;7393190;19;20136;-78
2023/12/22 11:37:00;;;;;;;6.77;1.20;;;;;4.40;93000.00;;;;7391087;19;20137;-79
2023/12/22 11:39:35;;;;;;;4.70;1.17;;;;;4.40;93013.00;;;;7390358;19;20154;-82
2023/12/22 11:42:04;;;;;;;6.40;1.27;;;;;4.30;92997.00;;;;7389759;19;20182;-78
2023/12/22 11:44:40;;;;;;;3.43;1.50;;;;;4.20;93019.00;;;;7391052;19;20128;-82
2023/12/22 11:47:09;;;;;;;2.13;1.00;;;;;4.40;92990.00;;;;7390425;19;20493;-84
2023/12/22 11:49:45;;;;;;;4.50;1.10;;;;;4.40;92985.00;;;;7391575;19;20132;-84
2023/12/22 11:52:31;;;;;;;1.37;0.80;;;;;4.40;92979.00;;;;7389840;19;20212;-79
2023/12/22 11:55:03;;;;;;;2.60;0.77;;;;;4.30;92975.00;;;;7391116;19;20603;-82
2023/12/22 11:57:40;;;;;;;1.60;0.67;;;;;4.50;92964.00;;;;7391071;19;20148;-84
2023/12/22 12:00:21;;;;;;;2.37;0.70;;;;;4.50;92955.00;;;;7389361;19;20141;-78
2023/12/22 12:02:56;;;;;;;1.23;0.63;;;;;4.60;92967.00;;;;7389244;19;20145;-79
2023/12/22 12:05:30;;;;;;;2.67;0.53;;;;;4.70;92945.00;;;;7389649;19;20129;-76
2023/12/22 12:08:07;;;;;;;0.87;0.43;;;;;4.70;92945.00;;;;7389593;19;20205;-79
2023/12/22 12:10:54;;;;;;;4.10;0.67;;;;;4.80;92933.00;;;;7390305;19;20145;-75
2023/12/22 12:13:30;;;;;;;0.83;0.37;;;;;4.90;92915.00;;;;7391804;19;20154;-75
2023/12/22 12:16:02;;;;;;;1.33;0.40;;;;;4.70;92900.00;;;;7391842;19;20480;-77
2023/12/22 12:18:37;;;;;;;2.60;0.77;;;;;5.00;92891.00;;;;7390859;19;20162;-77
2023/12/22 12:21:12;;;;;;;1.90;0.40;;;;;5.00;92873.00;;;;7390383;19;20512;-77
2023/12/22 12:23:54;;;;;;;0.87;0.50;;;;;5.20;92874.00;;;;7390203;19;20212;-74
2023/12/22 12:26:25;;;;;;;1.80;0.70;;;;;5.30;92875.00;;;;7388088;19;20235;-77
2023/12/22 12:29:01;;;;;;;0.60;0.50;;;;;5.30;92908.00;;;;7391621;19;20165;-76
2023/12/22 12:31:37;;;;;;;2.10;0.50;;;;;5.30;92870.00;;;;7389674;19;20152;-77
2023/12/22 12:34:16;;;;;;;1.60;0.60;;;;;5.30;92869.00;;;;7390262;19;20208;-76
2023/12/22 12:36:45;;;;;;;0.23;0.17;;;;;5.40;92857.00;;;;7390571;19;20197;-77
2023/12/22 12:39:28;;;;;;;1.50;0.97;;;;;5.30;92859.00;;;;7388735;19;20639;-76
2023/12/22 12:41:56;;;;;;;0.93;0.77;;;;;5.40;92840.00;;;;7389540;19;20612;-76
2023/12/22 12:44:33;;;;;;;0.50;0.30;;;;;5.40;92867.00;;;;7387508;19;20141;-75
2023/12/22 12:47:15;;;;;;;0.50;0.30;;;;;5.60;92824.00;;;;7388916;19;20133;-76
2023/12/22 12:49:58;;;;;;;6.43;0.30;;;;;5.60;92878.00;;;;7388732;19;20845;-76
2023/12/22 12:52:28;;;;;;;1.90;0.67;;;;;5.60;92864.00;;;;7387104;19;20604;-77
2023/12/22 12:55:25;;;;;;;0.20;0.20;;;;;5.60;92872.00;;;;7387805;19;20214;-76
2023/12/22 12:58:00;;;;;;;0.60;0.50;;;;;5.60;92858.00;;;;7387734;19;20149;-76
2023/12/22 13:00:38;;;;;;;0.50;0.50;;;;;5.60;92857.00;;;;7388105;19;20133;-76